Time;durP1;ratioP1;P1;durP2;ratioP2;P2;SDS_P1;SDS_P2;PMS_P1;PMS_P2;Temp;Humidity;BMP_temperature;BMP_pressure;BME280_temperature;BME280_humidity;BME280_pressure;Samples;Min_cycle;Max_cycle;Signal;HPM_P1;HPM_P2
2023/08/29 00:01:55;;;;;;;;;;;;;;;19.28;58.60;100150.91;4943264;28;7042;-74
2023/08/29 00:04:21;;;;;;;;;;;;;;;19.27;58.57;100144.81;4941751;28;6958;-73
2023/08/29 00:06:46;;;;;;;;;;;;;;;19.26;58.91;100153.47;4942672;28;6804;-73
2023/08/29 00:09:12;;;;;;;;;;;;;;;19.25;59.40;100150.84;4941607;28;7192;-73
2023/08/29 00:11:37;;;;;;;;;;;;;;;19.24;59.32;100157.78;4962060;28;6961;-73
2023/08/29 00:14:03;;;;;;;;;;;;;;;19.23;59.11;100142.19;4946326;28;7178;-73
2023/08/29 00:16:28;;;;;;;;;;;;;;;19.22;58.82;100145.66;4975498;28;6796;-73
2023/08/29 00:18:54;;;;;;;;;;;;;;;19.18;59.42;100131.75;4944286;28;7229;-73
2023/08/29 00:21:19;;;;;;;;;;;;;;;19.17;58.95;100131.72;4965847;28;7075;-73
2023/08/29 00:23:47;;;;;;;;;;;;;;;19.14;59.18;100127.41;4946227;28;6784;-73
2023/08/29 00:26:12;;;;;;;;;;;;;;;19.12;59.00;100134.28;4954337;28;7086;-73
2023/08/29 00:28:38;;;;;;;;;;;;;;;19.07;59.13;100128.19;4946711;28;7048;-73
2023/08/29 00:31:03;;;;;;;;;;;;;;;19.04;59.07;100136.84;4961774;28;8610;-73
2023/08/29 00:33:29;;;;;;;;;;;;;;;18.98;58.89;100144.56;4962546;28;6858;-74
2023/08/29 00:35:54;;;;;;;;;;;;;;;18.90;59.37;100138.41;4976585;28;8026;-73
2023/08/29 00:38:20;;;;;;;;;;;;;;;18.83;59.20;100127.97;4933477;28;6851;-73
2023/08/29 00:40:45;;;;;;;;;;;;;;;18.76;59.66;100133.09;4976407;28;7378;-73
2023/08/29 00:43:11;;;;;;;;;;;;;;;18.66;59.33;100133.00;4954218;28;6796;-73
2023/08/29 00:45:37;;;;;;;;;;;;;;;18.57;59.48;100132.88;4941161;28;7166;-73
2023/08/29 00:48:04;;;;;;;;;;;;;;;18.49;59.46;100127.59;4946011;28;6929;-73
2023/08/29 00:50:30;;;;;;;;;;;;;;;18.39;60.08;100134.41;4942971;28;7118;-73
2023/08/29 00:53:00;;;;;;;;;;;;;;;18.30;59.92;100132.59;4962184;28;6798;-73
2023/08/29 00:55:27;;;;;;;;;;;;;;;18.23;60.28;100140.25;4946425;28;7039;-73
2023/08/29 00:57:56;;;;;;;;;;;;;;;18.16;59.91;100150.59;4945807;28;7247;-73
2023/08/29 01:00:28;;;;;;;;;;;;;;;18.09;60.16;100156.53;4955041;28;6977;-73
2023/08/29 01:02:54;;;;;;;;;;;;;;;18.03;60.16;100153.81;4964146;28;7301;-72
2023/08/29 01:05:21;;;;;;;;;;;;;;;17.99;60.51;100154.63;4948203;28;7044;-72
2023/08/29 01:07:52;;;;;;;;;;;;;;;17.95;60.63;100150.25;4961260;28;7286;-74
2023/08/29 01:10:24;;;;;;;;;;;;;;;17.89;60.52;100151.91;4961626;28;6829;-73
2023/08/29 01:12:59;;;;;;;;;;;;;;;17.84;61.28;100153.56;4946935;28;6808;-73
2023/08/29 01:15:29;;;;;;;;;;;;;;;17.79;60.97;100150.03;4947573;28;7008;-73
2023/08/29 01:18:00;;;;;;;;;;;;;;;17.73;61.25;100150.84;4963292;28;6804;-73
2023/08/29 01:20:31;;;;;;;;;;;;;;;17.69;61.32;100151.63;4965914;28;7059;-73
2023/08/29 01:23:07;;;;;;;;;;;;;;;17.65;60.90;100161.91;4961538;28;6931;-73
2023/08/29 01:25:47;;;;;;;;;;;;;;;17.60;61.73;100162.72;4964031;28;6802;-72
2023/08/29 01:28:13;;;;;;;;;;;;;;;17.55;61.16;100166.09;4963266;28;6966;-73
2023/08/29 01:30:39;;;;;;;;;;;;;;;17.51;61.56;100172.94;4957240;28;6788;-73
2023/08/29 01:33:05;;;;;;;;;;;;;;;17.48;61.56;100178.09;4946697;28;6999;-73
2023/08/29 01:35:31;;;;;;;;;;;;;;;17.48;62.02;100188.47;4959559;28;6881;-73
2023/08/29 01:37:56;;;;;;;;;;;;;;;17.45;62.24;100189.28;4963473;28;6804;-73
2023/08/29 01:40:22;;;;;;;;;;;;;;;17.42;62.34;100186.59;4940559;28;6791;-73
2023/08/29 01:42:47;;;;;;;;;;;;;;;17.42;62.56;100185.75;4937472;28;7252;-73
2023/08/29 01:45:13;;;;;;;;;;;;;;;17.38;62.36;100183.94;4958247;28;6977;-73
2023/08/29 01:47:38;;;;;;;;;;;;;;;17.36;62.87;100196.88;4943498;28;6970;-73
2023/08/29 01:50:06;;;;;;;;;;;;;;;17.32;62.28;100201.13;4939654;28;7146;-73
2023/08/29 01:52:31;;;;;;;;;;;;;;;17.31;62.37;100201.09;4959502;28;7186;-73
2023/08/29 01:54:58;;;;;;;;;;;;;;;17.28;62.83;100208.84;4959538;28;7285;-73
2023/08/29 01:57:26;;;;;;;;;;;;;;;17.27;62.79;100201.91;4960206;28;6963;-74
2023/08/29 01:59:53;;;;;;;;;;;;;;;17.26;62.41;100205.34;4940063;28;7284;-73
2023/08/29 02:02:19;;;;;;;;;;;;;;;17.24;62.35;100213.09;4960254;28;7016;-74
2023/08/29 02:04:44;;;;;;;;;;;;;;;17.23;62.74;100219.09;4978180;28;7013;-71
2023/08/29 02:07:10;;;;;;;;;;;;;;;17.22;62.56;100212.19;4978426;28;7905;-71
2023/08/29 02:09:35;;;;;;;;;;;;;;;17.24;63.55;100217.38;4946832;28;6784;-72
2023/08/29 02:12:01;;;;;;;;;;;;;;;17.26;63.13;100221.75;4963546;28;7709;-71
2023/08/29 02:14:26;;;;;;;;;;;;;;;17.27;63.29;100228.66;4944651;28;7087;-72
2023/08/29 02:16:52;;;;;;;;;;;;;;;17.29;63.05;100226.13;4962644;28;6780;-71
2023/08/29 02:19:17;;;;;;;;;;;;;;;17.30;63.11;100215.78;4964237;28;6858;-71
2023/08/29 02:21:43;;;;;;;;;;;;;;;17.32;63.72;100214.09;4946786;28;6815;-72
2023/08/29 02:24:08;;;;;;;;;;;;;;;17.35;63.06;100210.69;4940870;28;6784;-72
2023/08/29 02:26:34;;;;;;;;;;;;;;;17.38;63.31;100210.72;4965085;28;6980;-71
2023/08/29 02:28:59;;;;;;;;;;;;;;;17.40;63.15;100215.94;4966455;28;6796;-71
2023/08/29 02:31:25;;;;;;;;;;;;;;;17.42;63.25;100206.47;4944281;28;6939;-71
2023/08/29 02:33:51;;;;;;;;;;;;;;;17.45;63.38;100211.69;4945780;28;6848;-71
2023/08/29 02:36:17;;;;;;;;;;;;;;;17.47;63.15;100217.78;4941582;28;6793;-71
2023/08/29 02:38:42;;;;;;;;;;;;;;;17.47;63.35;100205.72;4936575;28;6935;-70
2023/08/29 02:41:09;;;;;;;;;;;;;;;17.49;63.24;100218.69;4944655;28;6798;-71
2023/08/29 02:43:35;;;;;;;;;;;;;;;17.52;63.59;100207.50;4944911;28;6924;-71
2023/08/29 02:46:00;;;;;;;;;;;;;;;17.52;63.79;100213.56;4958924;28;6800;-70
2023/08/29 02:48:27;;;;;;;;;;;;;;;17.53;63.45;100210.13;4960207;28;7135;-70
2023/08/29 02:50:53;;;;;;;;;;;;;;;17.53;63.75;100198.88;4960975;28;7118;-70
2023/08/29 02:53:19;;;;;;;;;;;;;;;17.54;63.45;100205.81;4940723;28;6815;-69
2023/08/29 02:55:45;;;;;;;;;;;;;;;17.53;64.17;100196.28;4944926;28;6800;-71
2023/08/29 02:58:11;;;;;;;;;;;;;;;17.53;63.71;100189.38;4961382;28;7158;-74
2023/08/29 03:00:36;;;;;;;;;;;;;;;17.53;63.61;100188.50;4957690;28;6914;-74
2023/08/29 03:03:04;;;;;;;;;;;;;;;17.52;64.00;100186.75;4939088;28;8859;-75
2023/08/29 03:05:30;;;;;;;;;;;;;;;17.50;64.04;100184.16;4963969;28;6808;-73
2023/08/29 03:07:57;;;;;;;;;;;;;;;17.52;63.67;100189.34;4941359;28;7291;-72
2023/08/29 03:10:22;;;;;;;;;;;;;;;17.51;64.13;100185.91;4945152;28;6989;-74
2023/08/29 03:12:50;;;;;;;;;;;;;;;17.52;64.27;100190.22;4951872;28;7166;-74
2023/08/29 03:15:16;;;;;;;;;;;;;;;17.51;63.95;100175.53;4937132;28;6856;-75
2023/08/29 03:17:44;;;;;;;;;;;;;;;17.53;63.68;100172.94;4936618;28;6815;-75
2023/08/29 03:20:11;;;;;;;;;;;;;;;17.52;63.73;100172.09;4957659;28;7267;-75
2023/08/29 03:22:37;;;;;;;;;;;;;;;17.54;63.77;100164.38;4938252;28;7247;-74
2023/08/29 03:25:03;;;;;;;;;;;;;;;17.53;63.92;100150.53;4953888;28;7596;-76
2023/08/29 03:27:28;;;;;;;;;;;;;;;17.53;63.54;100147.94;4940036;28;7100;-75
2023/08/29 03:29:54;;;;;;;;;;;;;;;17.51;64.11;100154.81;4961796;28;6796;-73
2023/08/29 03:32:20;;;;;;;;;;;;;;;17.52;63.68;100147.91;4936546;28;8472;-75
2023/08/29 03:34:45;;;;;;;;;;;;;;;17.51;64.01;100144.44;4937018;28;7297;-73
2023/08/29 03:37:11;;;;;;;;;;;;;;;17.52;63.69;100138.41;4956921;28;7464;-75
2023/08/29 03:39:36;;;;;;;;;;;;;;;17.51;63.84;100131.50;4933147;28;6977;-74
2023/08/29 03:42:01;;;;;;;;;;;;;;;17.51;63.56;100120.25;4937403;28;6999;-74
2023/08/29 03:44:27;;;;;;;;;;;;;;;17.51;63.94;100128.91;4940573;28;7184;-74
2023/08/29 03:46:52;;;;;;;;;;;;;;;17.52;63.85;100121.97;4931615;28;6963;-74
2023/08/29 03:49:18;;;;;;;;;;;;;;;17.52;63.89;100120.28;4956262;28;6856;-72
2023/08/29 03:51:43;;;;;;;;;;;;;;;17.52;63.69;100119.41;4968028;28;6987;-72
2023/08/29 03:54:09;;;;;;;;;;;;;;;17.50;63.86;100124.56;4970306;28;7071;-74
2023/08/29 03:56:34;;;;;;;;;;;;;;;17.49;63.92;100113.31;4976872;28;6788;-74
2023/08/29 03:59:01;;;;;;;;;;;;;;;17.50;63.93;100116.81;4957568;28;7126;-75
2023/08/29 04:01:29;;;;;;;;;;;;;;;17.48;63.88;100118.50;4938456;28;6858;-74
2023/08/29 04:03:54;;;;;;;;;;;;;;;17.48;63.74;100118.50;4933653;28;6975;-75
2023/08/29 04:06:20;;;;;;;;;;;;;;;17.47;63.87;100114.16;4940252;28;6796;-75
2023/08/29 04:08:46;;;;;;;;;;;;;;;17.46;63.98;100115.88;4960680;28;6821;-72
2023/08/29 04:11:12;;;;;;;;;;;;;;;17.44;63.61;100107.22;4975587;28;6784;-74
2023/08/29 04:13:37;;;;;;;;;;;;;;;17.43;64.15;100113.25;4942761;28;6792;-73
2023/08/29 04:16:03;;;;;;;;;;;;;;;17.42;64.29;100119.25;4956419;28;6780;-75
2023/08/29 04:18:32;;;;;;;;;;;;;;;17.42;63.98;100118.41;4961293;28;6904;-75
2023/08/29 04:20:59;;;;;;;;;;;;;;;17.40;64.52;100118.38;4979144;28;7050;-75
2023/08/29 04:23:25;;;;;;;;;;;;;;;17.40;63.78;100112.34;4940355;28;8281;-75
2023/08/29 04:25:57;;;;;;;;;;;;;;;17.38;63.98;100114.00;4959413;28;6803;-75
2023/08/29 04:28:22;;;;;;;;;;;;;;;17.38;64.22;100111.41;4960867;28;6966;-74
2023/08/29 04:30:48;;;;;;;;;;;;;;;17.36;64.20;100119.19;4974409;28;6811;-72
2023/08/29 04:33:13;;;;;;;;;;;;;;;17.35;64.09;100123.47;4977510;28;6923;-74
2023/08/29 04:35:39;;;;;;;;;;;;;;;17.36;64.19;100126.94;4944573;28;6943;-75
2023/08/29 04:38:04;;;;;;;;;;;;;;;17.35;64.60;100131.25;4965545;28;6796;-74
2023/08/29 04:40:30;;;;;;;;;;;;;;;17.35;64.35;100123.47;4960066;28;6788;-75
2023/08/29 04:42:55;;;;;;;;;;;;;;;17.36;64.28;100129.53;4960677;28;6969;-72
2023/08/29 04:45:21;;;;;;;;;;;;;;;17.35;64.33;100131.25;4960633;28;6795;-75
2023/08/29 04:47:46;;;;;;;;;;;;;;;17.37;64.35;100130.41;4962583;28;7133;-74
2023/08/29 04:50:13;;;;;;;;;;;;;;;17.38;64.39;100137.31;4959605;28;6970;-75
2023/08/29 04:52:39;;;;;;;;;;;;;;;17.39;64.60;100136.50;4977928;28;6886;-72
2023/08/29 04:55:05;;;;;;;;;;;;;;;17.41;64.64;100132.22;4978245;28;6787;-72
2023/08/29 04:57:31;;;;;;;;;;;;;;;17.43;65.12;100141.75;4962042;28;6944;-73
2023/08/29 05:00:00;;;;;;;;;;;;;;;17.46;64.44;100141.78;4937461;28;7567;-72
2023/08/29 05:02:26;;;;;;;;;;;;;;;17.50;64.71;100145.31;4960989;28;7139;-73
2023/08/29 05:04:52;;;;;;;;;;;;;;;17.55;64.64;100140.19;4961421;28;6993;-73
2023/08/29 05:07:18;;;;;;;;;;;;;;;17.60;64.82;100149.78;4944970;28;7202;-73
2023/08/29 05:09:44;;;;;;;;;;;;;;;17.65;64.94;100148.97;4964094;28;7075;-73
2023/08/29 05:12:10;;;;;;;;;;;;;;;17.70;64.86;100152.50;4946640;28;7099;-73
2023/08/29 05:14:39;;;;;;;;;;;;;;;17.75;64.95;100158.59;4960824;28;7138;-73
2023/08/29 05:17:05;;;;;;;;;;;;;;;17.81;64.51;100157.81;4960687;28;6833;-73
2023/08/29 05:19:30;;;;;;;;;;;;;;;17.86;64.53;100164.81;4964853;28;7199;-73
2023/08/29 05:21:56;;;;;;;;;;;;;;;17.92;64.86;100158.88;4959849;28;6970;-74
2023/08/29 05:24:21;;;;;;;;;;;;;;;17.99;64.91;100154.63;4945221;28;6980;-74
2023/08/29 05:26:48;;;;;;;;;;;;;;;18.04;64.78;100158.19;4943557;28;6788;-74
2023/08/29 05:29:13;;;;;;;;;;;;;;;18.10;64.85;100160.88;4942287;28;7297;-74
2023/08/29 05:31:39;;;;;;;;;;;;;;;18.17;64.32;100157.50;4957586;28;6951;-74
2023/08/29 05:34:04;;;;;;;;;;;;;;;18.22;64.65;100159.28;4943967;28;6792;-73
2023/08/29 05:36:30;;;;;;;;;;;;;;;18.26;64.30;100155.88;4947339;28;6954;-73
2023/08/29 05:38:56;;;;;;;;;;;;;;;18.35;64.60;100155.13;4945480;28;6844;-72
2023/08/29 05:41:21;;;;;;;;;;;;;;;18.40;64.78;100150.88;4947097;28;6815;-73
2023/08/29 05:43:47;;;;;;;;;;;;;;;18.43;64.57;100151.75;4940058;28;6859;-73
2023/08/29 05:46:12;;;;;;;;;;;;;;;18.47;64.62;100147.47;4934598;28;6951;-73
2023/08/29 05:48:38;;;;;;;;;;;;;;;18.51;64.13;100145.78;4950337;28;6973;-72
2023/08/29 05:51:03;;;;;;;;;;;;;;;18.53;64.01;100144.06;4954067;28;7412;-73
2023/08/29 05:53:29;;;;;;;;;;;;;;;18.60;64.18;100148.47;4952169;28;8085;-72
2023/08/29 05:55:54;;;;;;;;;;;;;;;18.65;64.42;100151.13;4940710;28;6989;-73
2023/08/29 05:58:21;;;;;;;;;;;;;;;18.69;63.72;100152.91;4964254;28;7196;-73
2023/08/29 06:00:48;;;;;;;;;;;;;;;18.70;63.70;100152.91;4959735;28;7532;-72
2023/08/29 06:03:14;;;;;;;;;;;;;;;18.73;63.95;100145.19;4935081;28;7141;-72
2023/08/29 06:05:41;;;;;;;;;;;;;;;18.76;63.95;100144.31;4960431;28;6957;-72
2023/08/29 06:08:07;;;;;;;;;;;;;;;18.81;63.38;100144.38;4960736;28;6830;-72
2023/08/29 06:10:33;;;;;;;;;;;;;;;18.83;63.88;100147.84;4956973;28;7235;-73
2023/08/29 06:12:59;;;;;;;;;;;;;;;18.86;63.62;100143.56;4946673;28;6941;-72
2023/08/29 06:15:24;;;;;;;;;;;;;;;18.91;64.14;100142.75;4941400;28;6933;-72
2023/08/29 06:17:50;;;;;;;;;;;;;;;18.97;63.72;100146.25;4980721;28;6995;-72
2023/08/29 06:20:16;;;;;;;;;;;;;;;19.04;63.79;100146.38;4946904;28;7129;-72
2023/08/29 06:22:42;;;;;;;;;;;;;;;19.09;63.84;100140.34;4982058;28;6864;-72
2023/08/29 06:25:09;;;;;;;;;;;;;;;19.14;63.90;100143.00;4958232;28;6987;-72
2023/08/29 06:27:35;;;;;;;;;;;;;;;19.20;63.71;100147.38;4947109;28;7102;-73
2023/08/29 06:30:00;;;;;;;;;;;;;;;19.24;63.54;100149.13;4947315;28;7305;-73
2023/08/29 06:32:26;;;;;;;;;;;;;;;19.29;63.60;100155.22;4962129;28;7231;-73
2023/08/29 06:34:51;;;;;;;;;;;;;;;19.33;63.50;100157.00;4938591;28;7191;-73
2023/08/29 06:37:17;;;;;;;;;;;;;;;19.38;63.02;100162.22;4960212;28;6977;-72
2023/08/29 06:39:42;;;;;;;;;;;;;;;19.40;63.62;100161.38;4959769;28;7036;-73
2023/08/29 06:42:08;;;;;;;;;;;;;;;19.46;62.82;100155.34;4964255;28;7211;-72
2023/08/29 06:44:34;;;;;;;;;;;;;;;19.53;62.96;100153.66;4957743;28;6807;-72
2023/08/29 06:46:59;;;;;;;;;;;;;;;19.59;62.98;100156.31;4954716;28;6917;-72
2023/08/29 06:49:25;;;;;;;;;;;;;;;19.64;62.93;100161.56;4941777;28;6986;-72
2023/08/29 06:51:50;;;;;;;;;;;;;;;19.66;62.71;100159.81;4951862;28;6855;-72
2023/08/29 06:54:16;;;;;;;;;;;;;;;19.69;62.61;100157.25;4936319;28;7038;-72
2023/08/29 06:56:41;;;;;;;;;;;;;;;19.73;62.70;100160.72;4962826;28;6883;-72
2023/08/29 06:59:07;;;;;;;;;;;;;;;19.77;63.03;100152.97;4959423;28;6795;-72
2023/08/29 07:01:33;;;;;;;;;;;;;;;19.86;62.98;100162.56;4944465;28;7130;-72
2023/08/29 07:03:58;;;;;;;;;;;;;;;19.91;62.44;100158.25;4975027;28;7006;-73
2023/08/29 07:06:24;;;;;;;;;;;;;;;19.95;62.04;100159.16;4972584;28;6985;-73
2023/08/29 07:08:49;;;;;;;;;;;;;;;19.99;62.43;100160.94;4958319;28;6792;-72
2023/08/29 07:11:15;;;;;;;;;;;;;;;20.06;61.90;100157.50;4962069;28;6788;-72
2023/08/29 07:13:40;;;;;;;;;;;;;;;20.11;62.15;100153.19;4974975;28;7051;-72
2023/08/29 07:16:06;;;;;;;;;;;;;;;20.20;61.74;100156.69;4961506;28;6851;-72
2023/08/29 07:18:32;;;;;;;;;;;;;;;20.28;61.70;100156.72;4959136;28;7212;-74
2023/08/29 07:20:59;;;;;;;;;;;;;;;20.35;61.89;100156.75;4959171;28;7258;-72
2023/08/29 07:23:25;;;;;;;;;;;;;;;20.43;61.81;100150.72;4960299;28;8193;-73
2023/08/29 07:25:50;;;;;;;;;;;;;;;20.52;61.82;100159.44;4960702;28;6856;-73
2023/08/29 07:28:16;;;;;;;;;;;;;;;20.60;61.48;100154.22;4959209;28;6819;-73
2023/08/29 07:30:47;;;;;;;;;;;;;;;20.67;61.31;100157.72;4960888;28;6791;-73
2023/08/29 07:33:13;;;;;;;;;;;;;;;20.74;61.36;100153.38;4945793;28;7110;-72
2023/08/29 07:35:40;;;;;;;;;;;;;;;20.83;61.53;100163.84;4959977;28;7282;-73
2023/08/29 07:38:06;;;;;;;;;;;;;;;20.91;61.01;100158.69;4959683;28;7245;-72
2023/08/29 07:40:33;;;;;;;;;;;;;;;20.99;60.97;100162.13;4933026;28;6990;-69
2023/08/29 07:43:04;;;;;;;;;;;;;;;21.09;61.08;100157.81;4962529;28;6910;-70
2023/08/29 07:45:30;;;;;;;;;;;;;;;21.22;60.71;100161.31;4942454;28;8803;-70
2023/08/29 07:47:56;;;;;;;;;;;;;;;21.33;60.00;100156.06;4966321;28;7158;-68
2023/08/29 07:50:21;;;;;;;;;;;;;;;21.43;60.14;100160.41;4944759;28;7188;-68
2023/08/29 07:52:47;;;;;;;;;;;;;;;21.49;59.64;100160.41;4940762;28;7178;-69
2023/08/29 07:55:12;;;;;;;;;;;;;;;21.56;59.09;100166.47;4941206;28;6923;-72
2023/08/29 07:57:38;;;;;;;;;;;;;;;21.61;59.61;100161.25;4977843;28;6945;-68
2023/08/29 08:00:06;;;;;;;;;;;;;;;21.66;59.08;100164.75;4945434;28;6951;-69
2023/08/29 08:02:34;;;;;;;;;;;;;;;21.70;58.86;100166.50;4939616;28;7257;-72
2023/08/29 08:05:01;;;;;;;;;;;;;;;21.76;58.72;100160.41;4963277;28;6799;-68
2023/08/29 08:07:27;;;;;;;;;;;;;;;21.86;58.87;100166.47;4929493;28;7026;-69
2023/08/29 08:09:52;;;;;;;;;;;;;;;21.94;58.24;100169.06;4947947;28;6959;-72
2023/08/29 08:12:18;;;;;;;;;;;;;;;22.02;58.25;100167.31;4951078;28;6998;-69
2023/08/29 08:14:43;;;;;;;;;;;;;;;22.11;58.52;100166.38;4965877;28;6792;-69
2023/08/29 08:17:09;;;;;;;;;;;;;;;22.19;57.57;100167.22;4964812;28;7199;-68
2023/08/29 08:19:35;;;;;;;;;;;;;;;22.28;58.00;100168.97;4948965;28;6985;-70
2023/08/29 08:22:00;;;;;;;;;;;;;;;22.39;57.64;100171.50;4950819;28;7018;-69
2023/08/29 08:24:26;;;;;;;;;;;;;;;22.52;57.47;100173.22;4951557;28;6951;-72
2023/08/29 08:26:51;;;;;;;;;;;;;;;22.68;57.45;100163.56;4947465;28;6980;-69
2023/08/29 08:29:17;;;;;;;;;;;;;;;22.86;57.07;100161.72;4966632;28;6816;-70
2023/08/29 08:31:42;;;;;;;;;;;;;;;23.06;56.93;100156.34;4962560;28;6871;-69
2023/08/29 08:34:10;;;;;;;;;;;;;;;23.30;56.63;100157.06;4947124;28;6837;-72
2023/08/29 08:36:35;;;;;;;;;;;;;;;23.48;56.23;100161.25;4958784;28;7353;-72
2023/08/29 08:39:01;;;;;;;;;;;;;;;23.62;55.77;100153.28;4941619;28;6967;-71
2023/08/29 08:41:26;;;;;;;;;;;;;;;23.73;55.78;100155.78;4944917;28;7232;-69
2023/08/29 08:43:55;;;;;;;;;;;;;;;23.87;55.34;100158.25;4979614;28;6966;-70
2023/08/29 08:46:22;;;;;;;;;;;;;;;24.00;54.71;100159.00;4948566;28;6816;-69
2023/08/29 08:48:48;;;;;;;;;;;;;;;24.07;54.30;100152.81;4963170;28;6804;-72
2023/08/29 08:51:16;;;;;;;;;;;;;;;24.11;53.94;100156.25;4963067;28;6870;-71
2023/08/29 08:53:41;;;;;;;;;;;;;;;24.15;53.28;100162.31;4941964;28;7076;-70
2023/08/29 08:56:08;;;;;;;;;;;;;;;24.15;53.00;100164.94;4981141;28;6840;-70
2023/08/29 08:58:35;;;;;;;;;;;;;;;24.17;53.15;100166.66;4946622;28;6852;-69
2023/08/29 09:01:02;;;;;;;;;;;;;;;24.22;53.20;100162.22;4941933;28;7438;-72
2023/08/29 09:03:28;;;;;;;;;;;;;;;24.30;52.65;100166.50;4956768;28;7497;-69
2023/08/29 09:05:53;;;;;;;;;;;;;;;24.37;52.78;100162.94;4944107;28;6802;-71
2023/08/29 09:08:22;;;;;;;;;;;;;;;24.44;52.63;100158.47;4966022;28;7050;-69
2023/08/29 09:10:51;;;;;;;;;;;;;;;24.55;52.40;100167.03;4960931;28;6800;-71
2023/08/29 09:13:16;;;;;;;;;;;;;;;24.64;52.25;100163.44;4958230;28;7080;-71
2023/08/29 09:15:42;;;;;;;;;;;;;;;24.65;51.83;100162.56;4956295;28;6804;-69
2023/08/29 09:18:13;;;;;;;;;;;;;;;24.73;51.72;100165.06;4961537;28;6799;-70
2023/08/29 09:20:43;;;;;;;;;;;;;;;24.82;51.66;100168.47;4958240;28;7023;-71
2023/08/29 09:23:21;;;;;;;;;;;;;;;24.93;51.22;100170.06;4963960;28;6881;-69
2023/08/29 09:25:56;;;;;;;;;;;;;;;25.02;51.18;100166.41;4942185;28;7006;-71
2023/08/29 09:28:25;;;;;;;;;;;;;;;25.09;50.91;100158.41;4941681;28;6998;-71
2023/08/29 09:30:51;;;;;;;;;;;;;;;25.20;50.61;100160.00;4955215;28;6992;-71
2023/08/29 09:33:23;;;;;;;;;;;;;;;25.33;50.70;100161.53;4952057;28;6963;-69
2023/08/29 09:35:49;;;;;;;;;;;;;;;25.44;50.27;100169.19;4950598;28;7058;-68
2023/08/29 09:38:18;;;;;;;;;;;;;;;25.52;50.01;100162.09;4960394;28;7006;-71
2023/08/29 09:40:48;;;;;;;;;;;;;;;25.54;49.20;100162.06;4939982;28;7025;-70
2023/08/29 09:43:15;;;;;;;;;;;;;;;25.50;48.82;100165.66;4956646;28;6832;-69
2023/08/29 09:45:41;;;;;;;;;;;;;;;25.47;49.07;100168.28;4945336;28;7401;-73
2023/08/29 09:48:08;;;;;;;;;;;;;;;25.49;48.79;100166.50;4957290;28;7109;-69
2023/08/29 09:50:36;;;;;;;;;;;;;;;25.53;48.96;100162.97;4934271;28;6987;-71
2023/08/29 09:53:02;;;;;;;;;;;;;;;25.54;48.68;100166.44;4943840;28;6888;-69
2023/08/29 09:55:35;;;;;;;;;;;;;;;25.46;48.15;100156.06;4961819;28;7245;-68
2023/08/29 09:58:02;;;;;;;;;;;;;;;25.42;48.24;100154.41;4955555;28;6820;-69
2023/08/29 10:00:28;;;;;;;;;;;;;;;25.58;49.21;100158.50;4945571;28;6832;-70
2023/08/29 10:02:56;;;;;;;;;;;;;;;25.85;48.69;100152.78;4958988;28;6805;-72
2023/08/29 10:05:25;;;;;;;;;;;;;;;26.03;48.00;100148.91;4978030;28;7006;-72
2023/08/29 10:07:56;;;;;;;;;;;;;;;26.17;47.88;100140.75;4963982;28;7223;-70
2023/08/29 10:10:21;;;;;;;;;;;;;;;26.37;47.68;100145.63;4962641;28;6876;-69
2023/08/29 10:12:48;;;;;;;;;;;;;;;26.55;46.78;100139.06;4943273;28;7425;-71
2023/08/29 10:15:15;;;;;;;;;;;;;;;26.67;46.08;100135.31;4945979;28;6824;-70
2023/08/29 10:17:42;;;;;;;;;;;;;;;26.67;45.70;100127.44;4977854;28;7260;-75
2023/08/29 10:20:10;;;;;;;;;;;;;;;26.65;45.21;100137.09;4958788;28;7953;-72
2023/08/29 10:22:38;;;;;;;;;;;;;;;26.59;45.32;100140.72;4943697;28;6812;-71
2023/08/29 10:25:05;;;;;;;;;;;;;;;26.51;45.31;100126.91;4960364;28;7285;-71
2023/08/29 10:27:32;;;;;;;;;;;;;;;26.51;45.09;100136.56;4962852;28;7269;-71
2023/08/29 10:29:58;;;;;;;;;;;;;;;26.58;45.07;100128.47;4944582;28;6796;-71
2023/08/29 10:32:25;;;;;;;;;;;;;;;26.78;45.45;100129.78;4960984;28;7219;-71
2023/08/29 10:34:51;;;;;;;;;;;;;;;27.06;45.40;100123.88;4964538;28;6883;-71
2023/08/29 10:37:18;;;;;;;;;;;;;;;27.38;44.60;100126.59;4961930;28;6997;-71
2023/08/29 10:39:43;;;;;;;;;;;;;;;27.69;44.00;100121.41;4946228;28;7173;-71
2023/08/29 10:42:09;;;;;;;;;;;;;;;27.87;42.92;100113.91;4962566;28;7262;-71
2023/08/29 10:44:36;;;;;;;;;;;;;;;27.78;42.16;100117.63;4971867;28;7010;-71
2023/08/29 10:47:28;;;;;;;;;;;;;;;27.63;42.38;100125.97;4941662;28;7212;-71
2023/08/29 10:50:16;;;;;;;;;;;;;;;27.62;42.58;100127.72;4961157;28;7019;-71
2023/08/29 10:52:42;;;;;;;;;;;;;;;28.00;42.81;100114.38;4964564;28;7060;-71
2023/08/29 10:55:27;;;;;;;;;;;;;;;28.59;42.32;100119.69;4943858;28;6826;-71
2023/08/29 10:57:53;;;;;;;;;;;;;;;28.95;41.16;100120.28;4943744;28;6989;-71
2023/08/29 11:00:34;;;;;;;;;;;;;;;29.15;40.75;100108.22;4961731;28;6868;-71
2023/08/29 11:03:00;;;;;;;;;;;;;;;29.52;40.84;100112.22;4958700;28;6799;-71
2023/08/29 11:05:27;;;;;;;;;;;;;;;30.17;40.82;100105.50;4936921;28;7051;-71
2023/08/29 11:07:53;;;;;;;;;;;;;;;30.88;39.59;100100.03;4958257;28;7153;-72
2023/08/29 11:10:22;;;;;;;;;;;;;;;31.67;38.60;100092.31;4959889;28;7262;-71
2023/08/29 11:13:15;;;;;;;;;;;;;;;32.41;37.11;100096.00;4978426;28;7213;-72
2023/08/29 11:15:49;;;;;;;;;;;;;;;32.54;35.80;100101.56;4959920;28;6812;-72
2023/08/29 11:18:32;;;;;;;;;;;;;;;32.26;35.95;100094.94;4959118;28;7170;-72
2023/08/29 11:21:11;;;;;;;;;;;;;;;32.11;35.47;100096.50;4956603;28;6999;-72
2023/08/29 11:23:39;;;;;;;;;;;;;;;31.68;34.92;100094.91;4944853;28;7007;-72
2023/08/29 11:26:05;;;;;;;;;;;;;;;31.14;35.44;100095.44;4974405;28;6808;-71
2023/08/29 11:28:32;;;;;;;;;;;;;;;30.80;35.42;100093.38;4943738;28;7044;-71
2023/08/29 11:30:59;;;;;;;;;;;;;;;30.71;35.50;100089.31;4940074;28;6816;-71
2023/08/29 11:33:32;;;;;;;;;;;;;;;30.49;34.99;100090.16;4964746;28;6825;-72
2023/08/29 11:36:03;;;;;;;;;;;;;;;30.28;34.57;100091.91;4978537;28;7194;-71
2023/08/29 11:38:29;;;;;;;;;;;;;;;29.92;35.46;100095.84;4948565;28;7079;-71
2023/08/29 11:41:00;;;;;;;;;;;;;;;29.67;35.69;100094.13;4981855;28;6819;-71
2023/08/29 11:43:26;;;;;;;;;;;;;;;29.65;36.12;100088.91;4947067;28;7064;-72
2023/08/29 11:45:57;;;;;;;;;;;;;;;30.03;35.90;100098.94;4941993;28;7311;-72
2023/08/29 11:48:28;;;;;;;;;;;;;;;30.17;35.24;100092.31;4956538;28;7253;-72
2023/08/29 11:51:03;;;;;;;;;;;;;;;30.32;35.28;100089.03;4975466;28;6808;-71
2023/08/29 11:53:34;;;;;;;;;;;;;;;30.56;35.54;100088.13;4950598;28;6841;-72
2023/08/29 11:56:02;;;;;;;;;;;;;;;30.67;34.87;100080.66;4955277;28;6982;-71
2023/08/29 11:58:30;;;;;;;;;;;;;;;30.55;34.89;100083.75;4974605;28;8062;-71
2023/08/29 12:00:55;;;;;;;;;;;;;;;30.49;34.57;100082.22;4956482;28;6812;-72
2023/08/29 12:03:25;;;;;;;;;;;;;;;30.44;34.39;100084.22;4941432;28;6776;-72
2023/08/29 12:05:54;;;;;;;;;;;;;;;30.29;34.35;100086.53;4956105;28;6796;-71
2023/08/29 12:08:50;;;;;;;;;;;;;;;29.98;34.87;100087.69;4977574;28;6983;-71
2023/08/29 12:11:16;;;;;;;;;;;;;;;29.69;35.37;100084.38;4943375;28;7425;-71
2023/08/29 12:14:00;;;;;;;;;;;;;;;29.66;35.81;100087.13;4953839;28;6796;-72
2023/08/29 12:16:25;;;;;;;;;;;;;;;29.69;35.69;100081.72;4942007;28;6997;-72
2023/08/29 12:18:51;;;;;;;;;;;;;;;29.80;35.38;100079.53;4940373;28;7167;-72
2023/08/29 12:21:18;;;;;;;;;;;;;;;30.18;35.78;100078.16;4975840;28;6804;-71
2023/08/29 12:23:44;;;;;;;;;;;;;;;30.42;35.15;100076.31;4961065;28;7002;-71
2023/08/29 12:26:16;;;;;;;;;;;;;;;30.43;34.93;100067.47;4936958;28;7003;-71
2023/08/29 12:28:42;;;;;;;;;;;;;;;30.13;34.98;100070.41;4958574;28;6800;-71
2023/08/29 12:31:08;;;;;;;;;;;;;;;29.89;34.92;100072.19;4958477;28;6849;-72
2023/08/29 12:33:35;;;;;;;;;;;;;;;30.24;35.68;100059.44;4960786;28;7202;-71
2023/08/29 12:36:01;;;;;;;;;;;;;;;31.04;35.42;100059.72;4959247;28;7399;-72
2023/08/29 12:38:26;;;;;;;;;;;;;;;31.76;33.61;100052.16;4952208;28;6818;-71
2023/08/29 12:40:52;;;;;;;;;;;;;;;32.10;33.05;100047.09;4952466;28;6855;-70
2023/08/29 12:43:19;;;;;;;;;;;;;;;32.47;31.97;100045.34;4943202;28;6973;-71
2023/08/29 12:45:45;;;;;;;;;;;;;;;32.95;31.09;100050.06;4977388;28;6824;-71
2023/08/29 12:48:12;;;;;;;;;;;;;;;33.30;30.53;100043.84;4945675;28;6820;-71